Time,TemperatureF,DewpointF,PressureIn,WindDirection,WindDirectionDegrees,WindSpeedMPH,WindSpeedGustMPH,Humidity,HourlyPrecipIn,Conditions,Clouds,dailyrainin,SoftwareType,DateUTC
2013-04-07 00:00:00,37.4,18.5,30.16,ESE,112,2.1,2.3,46,0.00,,BKN,0.00,WeatherDisplay:10.37,2013-04-07 04:00:00,
2013-04-07 00:06:00,37.4,18.0,30.16,ESE,112,0.5,1.1,45,0.00,,BKN,0.00,WeatherDisplay:10.37,2013-04-07 04:06:00,
2013-04-07 00:12:00,37.4,18.5,30.15,ESE,112,1.7,2.3,46,0.00,,BKN,0.00,WeatherDisplay:10.37,2013-04-07 04:12:00,
2013-04-07 00:17:00,37.6,18.7,30.15,ESE,112,2.3,2.3,46,0.00,,BKN,0.00,WeatherDisplay:10.37,2013-04-07 04:17:00,
2013-04-07 00:22:00,37.6,19.2,30.15,ESE,112,0.5,1.7,47,0.00,,BKN,0.00,WeatherDisplay:10.37,2013-04-07 04:22:00,
2013-04-07 00:27:00,37.6,18.2,30.15,ESE,112,0.3,2.7,45,0.00,,BKN,0.00,WeatherDisplay:10.37,2013-04-07 04:27:00,
2013-04-07 00:32:00,37.8,18.8,30.15,ESE,112,1.6,2.3,46,0.00,,BKN,0.00,WeatherDisplay:10.37,2013-04-07 04:32:00,
2013-04-07 00:37:00,37.9,18.4,30.14,ESE,112,2.8,3.5,45,0.00,,BKN,0.00,WeatherDisplay:10.37,2013-04-07 04:37:00,
2013-04-07 00:42:00,37.9,18.9,30.14,ESE,112,2.5,2.7,46,0.00,,BKN,0.00,WeatherDisplay:10.37,2013-04-07 04:42:00,
2013-04-07 00:47:00,38.1,20.1,30.13,ESE,112,2.7,3.5,48,0.00,,BKN,0.00,WeatherDisplay:10.37,2013-04-07 04:47:00,
2013-04-07 00:52:00,38.1,19.6,30.13,ESE,112,1.7,2.2,47,0.00,,BKN,0.00,WeatherDisplay:10.37,2013-04-07 04:52:00,
2013-04-07 00:57:00,38.3,19.3,30.13,ESE,112,1.9,2.3,46,0.00,,BKN,0.00,WeatherDisplay:10.37,2013-04-07 04:57:00,
2013-04-07 01:02:00,38.3,19.8,30.13,ESE,112,0.0,0.0,47,0.00,,BKN,0.00,WeatherDisplay:10.37,2013-04-07 05:02:00,
2013-04-07 01:07:00,38.3,20.3,30.13,ESE,112,1.5,2.3,48,0.00,,BKN,0.00,WeatherDisplay:10.37,2013-04-07 05:07:00,
2013-04-07 01:12:00,38.3,20.8,30.13,ESE,112,0.0,0.0,49,0.00,,BKN,0.00,WeatherDisplay:10.37,2013-04-07 05:12:00,
2013-04-07 01:17:00,38.5,20.5,30.13,ESE,112,0.7,2.7,48,0.00,,BKN,0.00,WeatherDisplay:10.37,2013-04-07 05:17:00,
2013-04-07 01:22:00,38.5,21.0,30.13,ESE,112,1.1,1.1,49,0.00,,BKN,0.00,WeatherDisplay:10.37,2013-04-07 05:22:00,
2013-04-07 01:27:00,38.7,20.7,30.12,ESE,112,0.4,1.1,48,0.00,,BKN,0.00,WeatherDisplay:10.37,2013-04-07 05:27:00,
2013-04-07 01:32:00,38.8,20.8,30.12,ESE,112,2.4,2.7,48,0.00,,BKN,0.00,WeatherDisplay:10.37,2013-04-07 05:32:00,
2013-04-07 01:37:00,39.0,20.9,30.12,ESE,112,1.5,2.3,48,0.00,,BKN,0.00,WeatherDisplay:10.37,2013-04-07 05:37:00,
2013-04-07 01:42:00,39.2,21.1,30.12,ESE,112,1.5,2.3,48,0.00,,BKN,0.00,WeatherDisplay:10.37,2013-04-07 05:42:00,
2013-04-07 01:47:00,39.2,21.6,30.12,ESE,112,0.0,0.0,49,0.00,,BKN,0.00,WeatherDisplay:10.37,2013-04-07 05:47:00,
2013-04-07 01:52:00,39.2,21.6,30.11,ESE,112,1.2,1.7,49,0.00,,BKN,0.00,WeatherDisplay:10.37,2013-04-07 05:52:00,
2013-04-07 01:58:00,39.6,20.5,30.11,ESE,112,3.4,3.5,46,0.00,,BKN,0.00,WeatherDisplay:10.37,2013-04-07 05:58:00,
2013-04-07 02:03:00,40.3,21.6,30.09,ESE,112,0.6,3.5,47,0.00,,BKN,0.00,WeatherDisplay:10.37,2013-04-07 06:03:00,
2013-04-07 02:08:00,41.0,20.7,30.09,ESE,112,2.8,3.7,44,0.00,,BKN,0.00,WeatherDisplay:10.37,2013-04-07 06:08:00,
2013-04-07 02:13:00,41.5,18.9,30.08,ESE,112,2.3,2.7,40,0.00,,BKN,0.00,WeatherDisplay:10.37,2013-04-07 06:13:00,
2013-04-07 02:18:00,41.5,20.1,30.08,ESE,112,1.2,2.3,42,0.00,,BKN,0.00,WeatherDisplay:10.37,2013-04-07 06:18:00,
2013-04-07 02:23:00,41.9,21.5,30.08,ESE,112,0.3,2.3,44,0.00,,BKN,0.00,WeatherDisplay:10.37,2013-04-07 06:23:00,
2013-04-07 02:28:00,42.8,21.8,30.08,WSW,248,1.8,2.3,43,0.00,,BKN,0.00,WeatherDisplay:10.37,2013-04-07 06:28:00,
2013-04-07 02:33:00,43.3,20.0,30.08,SE,135,3.4,3.4,39,0.00,,BKN,0.00,WeatherDisplay:10.37,2013-04-07 06:33:00,
2013-04-07 02:38:00,44.1,19.5,30.07,SE,135,3.1,4.6,37,0.00,,BKN,0.00,WeatherDisplay:10.37,2013-04-07 06:38:00,
2013-04-07 02:43:00,44.1,18.8,30.07,SE,135,1.9,2.3,36,0.00,,BKN,0.00,WeatherDisplay:10.37,2013-04-07 06:43:00,
2013-04-07 02:48:00,44.2,19.5,30.06,SE,135,1.7,2.3,37,0.00,,BKN,0.00,WeatherDisplay:10.37,2013-04-07 06:48:00,
2013-04-07 02:53:00,45.0,19.6,30.06,SSW,202,4.2,5.8,36,0.00,,BKN,0.00,WeatherDisplay:10.37,2013-04-07 06:53:00,
2013-04-07 02:58:00,44.8,20.7,30.06,South,180,2.4,4.6,38,0.00,,BKN,0.00,WeatherDisplay:10.37,2013-04-07 06:58:00,
2013-04-07 03:03:00,45.1,20.3,30.06,WNW,292,3.6,6.9,37,0.00,,BKN,0.00,WeatherDisplay:10.37,2013-04-07 07:03:00,
2013-04-07 03:08:00,45.1,20.3,30.06,WNW,292,0.2,1.1,37,0.00,,BKN,0.00,WeatherDisplay:10.37,2013-04-07 07:08:00,
2013-04-07 03:13:00,45.1,20.3,30.06,SE,135,2.4,2.4,37,0.00,,BKN,0.00,WeatherDisplay:10.37,2013-04-07 07:13:00,
2013-04-07 03:18:00,45.1,19.7,30.06,NE,45,0.0,2.7,36,0.00,,BKN,0.00,WeatherDisplay:10.37,2013-04-07 07:18:00,
2013-04-07 03:23:00,45.5,21.3,30.06,ESE,112,1.5,3.5,38,0.00,,BKN,0.00,WeatherDisplay:10.37,2013-04-07 07:23:00,
2013-04-07 03:28:00,45.5,20.7,30.06,ESE,112,2.6,3.5,37,0.00,,BKN,0.00,WeatherDisplay:10.37,2013-04-07 07:28:00,
2013-04-07 03:33:00,45.1,21.0,30.06,ESE,112,0.9,2.3,38,0.00,,BKN,0.00,WeatherDisplay:10.37,2013-04-07 07:33:00,
2013-04-07 03:38:00,45.5,20.7,30.06,ESE,112,2.0,2.3,37,0.00,,BKN,0.00,WeatherDisplay:10.37,2013-04-07 07:38:00,
2013-04-07 03:43:00,46.0,21.1,30.06,West,270,2.6,5.8,37,0.00,,BKN,0.00,WeatherDisplay:10.37,2013-04-07 07:43:00,
2013-04-07 03:48:00,45.5,22.5,30.06,ESE,112,1.8,5.8,40,0.00,,BKN,0.00,WeatherDisplay:10.37,2013-04-07 07:48:00,
2013-04-07 03:53:00,45.7,22.7,30.06,ESE,112,2.5,3.2,40,0.00,,BKN,0.00,WeatherDisplay:10.37,2013-04-07 07:53:00,
2013-04-07 03:58:00,46.0,22.4,30.06,SE,135,3.4,4.6,39,0.00,,BKN,0.00,WeatherDisplay:10.37,2013-04-07 07:58:00,
2013-04-07 04:03:00,45.7,22.7,30.07,WNW,292,2.2,2.7,40,0.00,,BKN,0.00,WeatherDisplay:10.37,2013-04-07 08:03:00,
2013-04-07 04:08:00,45.7,22.7,30.07,WNW,292,1.8,2.3,40,0.00,,BKN,0.00,WeatherDisplay:10.37,2013-04-07 08:08:00,
2013-04-07 04:13:00,45.5,25.4,30.07,West,270,2.1,2.3,45,0.00,,BKN,0.00,WeatherDisplay:10.37,2013-04-07 08:13:00,
2013-04-07 04:18:00,45.0,27.5,30.07,West,270,0.0,1.1,50,0.00,,BKN,0.00,WeatherDisplay:10.37,2013-04-07 08:18:00,
2013-04-07 04:23:00,44.6,28.0,30.06,West,270,2.8,3.2,52,0.00,,BKN,0.00,WeatherDisplay:10.37,2013-04-07 08:23:00,
2013-04-07 04:28:00,44.4,28.8,30.06,ESE,112,0.0,1.1,54,0.00,,BKN,0.00,WeatherDisplay:10.37,2013-04-07 08:28:00,
2013-04-07 04:33:00,44.1,26.1,30.06,ESE,112,1.9,2.3,49,0.00,,BKN,0.00,WeatherDisplay:10.37,2013-04-07 08:33:00,
2013-04-07 04:38:00,44.1,26.1,30.06,ESE,112,2.8,3.5,49,0.00,,BKN,0.00,WeatherDisplay:10.37,2013-04-07 08:38:00,
2013-04-07 04:43:00,44.1,27.6,30.06,ESE,112,2.7,3.5,52,0.00,,BKN,0.00,WeatherDisplay:10.37,2013-04-07 08:43:00,
2013-04-07 04:48:00,43.9,27.4,30.04,ESE,112,3.5,3.5,52,0.00,,BKN,0.00,WeatherDisplay:10.37,2013-04-07 08:48:00,
2013-04-07 04:53:00,43.9,26.4,30.04,ESE,112,5.9,7.8,50,0.00,,BKN,0.00,WeatherDisplay:10.37,2013-04-07 08:53:00,
2013-04-07 04:59:00,44.2,26.7,30.04,ESE,112,3.1,4.6,50,0.00,,BKN,0.00,WeatherDisplay:10.37,2013-04-07 08:59:00,
2013-04-07 05:04:00,44.2,26.7,30.00,ESE,112,2.4,3.2,50,0.00,,BKN,0.00,WeatherDisplay:10.37,2013-04-07 09:04:00,
2013-04-07 05:09:00,44.2,27.2,30.00,ESE,112,3.6,4.6,51,0.00,,BKN,0.00,WeatherDisplay:10.37,2013-04-07 09:09:00,
2013-04-07 05:14:00,44.2,27.7,30.01,ESE,112,1.9,2.3,52,0.00,,BKN,0.00,WeatherDisplay:10.37,2013-04-07 09:14:00,
2013-04-07 05:19:00,44.2,27.7,30.01,ESE,112,3.8,7.8,52,0.00,,BKN,0.00,WeatherDisplay:10.37,2013-04-07 09:19:00,
2013-04-07 05:25:00,44.2,27.2,29.99,ESE,112,4.3,5.3,51,0.00,,BKN,0.00,WeatherDisplay:10.37,2013-04-07 09:25:00,
2013-04-07 05:30:00,44.6,25.6,29.99,ENE,68,4.4,5.8,47,0.00,,BKN,0.00,WeatherDisplay:10.37,2013-04-07 09:30:00,
2013-04-07 05:35:00,45.0,25.4,29.99,NNE,22,4.2,5.8,46,0.00,,BKN,0.00,WeatherDisplay:10.37,2013-04-07 09:35:00,
2013-04-07 05:40:00,44.6,27.1,30.01,NNE,22,0.5,2.2,50,0.00,,BKN,0.00,WeatherDisplay:10.37,2013-04-07 09:40:00,
2013-04-07 05:45:00,44.8,26.3,30.01,SE,135,2.2,4.2,48,0.00,,BKN,0.00,WeatherDisplay:10.37,2013-04-07 09:45:00,
2013-04-07 05:50:00,44.8,25.3,30.01,NNE,22,2.4,2.4,46,0.00,,BKN,0.00,WeatherDisplay:10.37,2013-04-07 09:50:00,
2013-04-07 05:55:00,45.0,24.9,30.01,ESE,112,2.5,4.6,45,0.00,,BKN,0.00,WeatherDisplay:10.37,2013-04-07 09:55:00,
2013-04-07 06:00:00,45.0,27.0,29.98,West,270,1.8,2.7,49,0.00,,BKN,0.00,WeatherDisplay:10.37,2013-04-07 10:00:00,
2013-04-07 06:05:00,45.0,26.0,29.98,SE,135,1.7,2.3,47,0.00,,BKN,0.00,WeatherDisplay:10.37,2013-04-07 10:05:00,
2013-04-07 06:10:00,45.0,25.4,29.98,South,180,0.1,1.1,46,0.00,,BKN,0.00,WeatherDisplay:10.37,2013-04-07 10:10:00,
2013-04-07 06:15:00,45.1,26.1,29.99,ESE,112,2.7,4.6,47,0.00,,BKN,0.00,WeatherDisplay:10.37,2013-04-07 10:15:00,
2013-04-07 06:20:00,45.1,26.6,29.99,SSW,202,0.7,2.3,48,0.00,,BKN,0.00,WeatherDisplay:10.37,2013-04-07 10:20:00,
2013-04-07 06:25:00,45.0,26.0,29.99,SSW,202,1.5,2.2,47,0.00,,BKN,0.00,WeatherDisplay:10.37,2013-04-07 10:25:00,
2013-04-07 06:30:00,45.0,26.0,29.99,SE,135,3.4,5.8,47,0.00,,BKN,0.00,WeatherDisplay:10.37,2013-04-07 10:30:00,
2013-04-07 06:35:00,45.0,26.5,29.99,South,180,2.7,3.2,48,0.00,,BKN,0.00,WeatherDisplay:10.37,2013-04-07 10:35:00,
2013-04-07 06:40:00,45.0,26.0,29.99,ESE,112,2.7,4.6,47,0.00,,BKN,0.00,WeatherDisplay:10.37,2013-04-07 10:40:00,
2013-04-07 06:45:00,45.0,26.0,29.99,ESE,112,5.2,5.8,47,0.00,,BKN,0.00,WeatherDisplay:10.37,2013-04-07 10:45:00,
2013-04-07 06:51:00,45.0,27.5,29.98,ESE,112,2.3,2.7,50,0.00,,BKN,0.00,WeatherDisplay:10.37,2013-04-07 10:51:00,
2013-04-07 06:56:00,45.3,26.2,29.98,SSE,158,2.8,8.1,47,0.00,,BKN,0.00,WeatherDisplay:10.37,2013-04-07 10:56:00,
2013-04-07 07:01:00,45.3,26.7,29.97,WNW,292,1.5,2.3,48,0.00,,BKN,0.00,WeatherDisplay:10.37,2013-04-07 11:01:00,
2013-04-07 07:06:00,45.3,26.2,29.97,WNW,292,5.0,8.3,47,0.00,,BKN,0.00,WeatherDisplay:10.37,2013-04-07 11:06:00,
2013-04-07 07:11:00,45.5,26.4,29.97,South,180,2.9,3.5,47,0.00,,BKN,0.00,WeatherDisplay:10.37,2013-04-07 11:11:00,
2013-04-07 07:17:00,46.2,26.0,29.97,SSW,202,3.1,4.6,45,0.00,,BKN,0.00,WeatherDisplay:10.37,2013-04-07 11:17:00,
2013-04-07 07:22:00,46.4,26.2,29.97,West,270,3.9,5.8,45,0.00,,BKN,0.00,WeatherDisplay:10.37,2013-04-07 11:22:00,
2013-04-07 07:27:00,46.8,25.5,29.96,West,270,2.9,5.3,43,0.00,,BKN,0.00,WeatherDisplay:10.37,2013-04-07 11:27:00,
2013-04-07 07:32:00,46.9,26.6,29.96,SE,135,4.9,6.9,45,0.00,,BKN,0.00,WeatherDisplay:10.37,2013-04-07 11:32:00,
2013-04-07 07:37:00,47.1,26.3,29.96,ESE,112,3.9,4.6,44,0.00,,BKN,0.00,WeatherDisplay:10.37,2013-04-07 11:37:00,
2013-04-07 07:42:00,47.3,27.5,29.96,SSW,202,5.3,5.8,46,0.00,,BKN,0.00,WeatherDisplay:10.37,2013-04-07 11:42:00,
2013-04-07 07:47:00,47.3,27.5,29.96,SW,225,4.9,5.8,46,0.00,,BKN,0.00,WeatherDisplay:10.37,2013-04-07 11:47:00,
2013-04-07 07:53:00,48.0,27.6,29.96,SSE,158,4.0,5.8,45,0.00,,BKN,0.00,WeatherDisplay:10.37,2013-04-07 11:53:00,
2013-04-07 07:58:00,48.2,27.3,29.96,SE,135,2.5,4.6,44,0.00,,BKN,0.00,WeatherDisplay:10.37,2013-04-07 11:58:00,
2013-04-07 08:04:00,48.2,27.3,29.95,SSW,202,3.1,5.8,44,0.00,,BKN,0.00,WeatherDisplay:10.37,2013-04-07 12:04:00,
2013-04-07 08:09:00,48.2,26.2,29.95,SE,135,3.9,4.2,42,0.00,,BKN,0.00,WeatherDisplay:10.37,2013-04-07 12:09:00,
2013-04-07 08:14:00,48.4,27.5,29.95,South,180,2.1,2.3,44,0.00,,BKN,0.00,WeatherDisplay:10.37,2013-04-07 12:14:00,
2013-04-07 08:19:00,48.4,26.9,29.95,SSW,202,3.1,4.7,43,0.00,,BKN,0.00,WeatherDisplay:10.37,2013-04-07 12:19:00,
2013-04-07 08:24:00,48.6,27.6,29.93,South,180,5.3,5.3,44,0.00,,BKN,0.00,WeatherDisplay:10.37,2013-04-07 12:24:00,
2013-04-07 08:29:00,48.6,27.6,29.93,South,180,3.4,4.7,44,0.00,,BKN,0.00,WeatherDisplay:10.37,2013-04-07 12:29:00,
2013-04-07 08:34:00,48.7,27.2,29.93,South,180,6.0,6.0,43,0.00,,BKN,0.00,WeatherDisplay:10.37,2013-04-07 12:34:00,
2013-04-07 08:39:00,48.7,27.2,29.92,SSE,158,4.1,4.1,43,0.00,,BKN,0.00,WeatherDisplay:10.37,2013-04-07 12:39:00,
2013-04-07 08:44:00,48.9,27.4,29.92,ESE,112,3.5,5.8,43,0.00,,BKN,0.00,WeatherDisplay:10.37,2013-04-07 12:44:00,
2013-04-07 08:49:00,49.3,27.7,29.92,South,180,3.6,4.6,43,0.00,,BKN,0.00,WeatherDisplay:10.37,2013-04-07 12:49:00,
2013-04-07 08:54:00,50.0,28.9,29.92,WNW,292,4.0,8.3,44,0.00,,BKN,0.00,WeatherDisplay:10.37,2013-04-07 12:54:00,
2013-04-07 08:59:00,50.2,28.0,29.91,SSW,202,4.6,9.4,42,0.00,,BKN,0.00,WeatherDisplay:10.37,2013-04-07 12:59:00,
2013-04-07 09:04:00,50.0,28.4,29.91,SW,225,3.4,4.7,43,0.00,,BKN,0.00,WeatherDisplay:10.37,2013-04-07 13:04:00,
2013-04-07 09:09:00,50.0,28.9,29.91,South,180,3.7,3.7,44,0.00,,BKN,0.00,WeatherDisplay:10.37,2013-04-07 13:09:00,
2013-04-07 09:15:00,50.0,28.4,29.91,SE,135,3.2,5.8,43,0.00,,BKN,0.00,WeatherDisplay:10.37,2013-04-07 13:15:00,
2013-04-07 09:20:00,50.0,28.9,29.91,SSW,202,2.9,9.2,44,0.00,,BKN,0.00,WeatherDisplay:10.37,2013-04-07 13:20:00,
2013-04-07 09:25:00,49.8,28.7,29.91,SE,135,5.1,7.3,44,0.00,,BKN,0.00,WeatherDisplay:10.37,2013-04-07 13:25:00,
2013-04-07 09:30:00,49.6,29.1,29.91,South,180,4.5,5.8,45,0.00,,BKN,0.00,WeatherDisplay:10.37,2013-04-07 13:30:00,
2013-04-07 09:35:00,49.8,29.3,29.90,SW,225,3.4,4.6,45,0.00,,BKN,0.00,WeatherDisplay:10.37,2013-04-07 13:35:00,
2013-04-07 09:41:00,50.2,29.1,29.90,South,180,3.2,8.1,44,0.00,,BKN,0.00,WeatherDisplay:10.37,2013-04-07 13:41:00,
2013-04-07 09:46:00,50.4,29.3,29.90,SSW,202,4.7,6.9,44,0.00,,BKN,0.00,WeatherDisplay:10.37,2013-04-07 13:46:00,
2013-04-07 09:51:00,50.4,29.3,29.90,East,90,2.7,3.7,44,0.00,,BKN,0.00,WeatherDisplay:10.37,2013-04-07 13:51:00,
2013-04-07 09:56:00,50.9,29.7,29.90,South,180,5.4,10.4,44,0.00,,BKN,0.00,WeatherDisplay:10.37,2013-04-07 13:56:00,
2013-04-07 10:01:00,50.9,29.2,29.89,SSE,158,5.5,5.8,43,0.00,,BKN,0.00,WeatherDisplay:10.37,2013-04-07 14:01:00,
2013-04-07 10:06:00,50.9,30.3,29.89,NE,45,4.3,5.8,45,0.00,,BKN,0.00,WeatherDisplay:10.37,2013-04-07 14:06:00,
2013-04-07 10:11:00,51.1,30.5,29.87,SSE,158,5.0,5.8,45,0.00,,BKN,0.00,WeatherDisplay:10.37,2013-04-07 14:11:00,
2013-04-07 10:17:00,51.1,31.0,29.87,South,180,7.0,13.8,46,0.00,,BKN,0.00,WeatherDisplay:10.37,2013-04-07 14:17:00,
2013-04-07 10:22:00,51.1,30.5,29.87,SSE,158,3.4,3.7,45,0.00,,BKN,0.00,WeatherDisplay:10.37,2013-04-07 14:22:00,
2013-04-07 10:27:00,51.1,31.0,29.87,South,180,2.9,4.6,46,0.00,,BKN,0.00,WeatherDisplay:10.37,2013-04-07 14:27:00,
2013-04-07 10:32:00,51.1,30.5,29.87,SSE,158,3.0,5.8,45,0.00,,BKN,0.00,WeatherDisplay:10.37,2013-04-07 14:32:00,
2013-04-07 10:37:00,51.6,30.4,29.87,South,180,5.1,6.9,44,0.00,,BKN,0.00,WeatherDisplay:10.37,2013-04-07 14:37:00,
2013-04-07 10:42:00,51.8,30.6,29.87,SW,225,4.3,5.8,44,0.00,,BKN,0.00,WeatherDisplay:10.37,2013-04-07 14:42:00,
2013-04-07 10:48:00,52.0,31.3,29.87,SSE,158,4.5,6.8,45,0.00,,BKN,0.00,WeatherDisplay:10.37,2013-04-07 14:48:00,
2013-04-07 10:53:00,52.2,30.9,29.87,South,180,3.9,5.3,44,0.00,,BKN,0.00,WeatherDisplay:10.37,2013-04-07 14:53:00,
2013-04-07 10:58:00,52.0,31.3,29.87,SSW,202,3.5,4.6,45,0.00,,BKN,0.00,WeatherDisplay:10.37,2013-04-07 14:58:00,
2013-04-07 11:03:00,52.2,30.9,29.87,WSW,248,4.9,5.8,44,0.00,,BKN,0.00,WeatherDisplay:10.37,2013-04-07 15:03:00,
2013-04-07 11:08:00,52.2,31.5,29.87,SSW,202,3.3,5.8,45,0.00,,BKN,0.00,WeatherDisplay:10.37,2013-04-07 15:08:00,
2013-04-07 11:13:00,52.5,31.2,29.87,South,180,3.8,6.9,44,0.00,,BKN,0.00,WeatherDisplay:10.37,2013-04-07 15:13:00,
2013-04-07 11:18:00,52.9,31.0,29.87,SW,225,6.3,9.2,43,0.00,,BKN,0.00,WeatherDisplay:10.37,2013-04-07 15:18:00,
2013-04-07 11:23:00,53.4,31.4,29.86,South,180,6.0,8.1,43,0.00,,BKN,0.00,WeatherDisplay:10.37,2013-04-07 15:23:00,
2013-04-07 11:28:00,53.6,32.2,29.86,SE,135,2.3,2.7,44,0.00,,BKN,0.00,WeatherDisplay:10.37,2013-04-07 15:28:00,
2013-04-07 11:33:00,53.8,31.2,29.86,SSW,202,3.4,4.6,42,0.00,,BKN,0.00,WeatherDisplay:10.37,2013-04-07 15:33:00,
2013-04-07 11:38:00,54.0,32.0,29.87,SSW,202,2.9,3.5,43,0.00,,BKN,0.00,WeatherDisplay:10.37,2013-04-07 15:38:00,
2013-04-07 11:43:00,54.1,30.9,29.87,SSE,158,3.8,4.6,41,0.00,,BKN,0.00,WeatherDisplay:10.37,2013-04-07 15:43:00,
2013-04-07 11:48:00,54.5,31.3,29.86,South,180,4.6,9.2,41,0.00,,BKN,0.00,WeatherDisplay:10.37,2013-04-07 15:48:00,
2013-04-07 11:53:00,54.7,30.8,29.86,South,180,3.3,4.6,40,0.00,,BKN,0.00,WeatherDisplay:10.37,2013-04-07 15:53:00,
2013-04-07 11:58:00,55.2,30.7,29.86,West,270,2.4,3.5,39,0.00,,BKN,0.00,WeatherDisplay:10.37,2013-04-07 15:58:00,
2013-04-07 12:03:00,55.4,30.8,29.86,SSE,158,3.6,5.8,39,0.00,,BKN,0.00,WeatherDisplay:10.37,2013-04-07 16:03:00,
2013-04-07 12:08:00,55.4,31.5,29.86,SE,135,3.6,3.6,40,0.00,,BKN,0.00,WeatherDisplay:10.37,2013-04-07 16:08:00,
2013-04-07 12:13:00,56.1,31.5,29.85,SE,135,3.7,5.8,39,0.00,,BKN,0.00,WeatherDisplay:10.37,2013-04-07 16:13:00,
2013-04-07 12:18:00,56.5,32.4,29.85,South,180,2.6,3.5,40,0.00,,BKN,0.00,WeatherDisplay:10.37,2013-04-07 16:18:00,
2013-04-07 12:23:00,56.8,32.1,29.84,SSE,158,3.1,4.6,39,0.00,,BKN,0.00,WeatherDisplay:10.37,2013-04-07 16:23:00,
2013-04-07 12:29:00,57.7,32.2,29.84,SW,225,4.0,4.7,38,0.00,,BKN,0.00,WeatherDisplay:10.37,2013-04-07 16:29:00,
2013-04-07 12:34:00,57.6,31.5,29.84,ESE,112,3.1,4.6,37,0.00,,BKN,0.00,WeatherDisplay:10.37,2013-04-07 16:34:00,
2013-04-07 12:39:00,57.4,31.3,29.84,SE,135,4.6,5.8,37,0.00,,BKN,0.00,WeatherDisplay:10.37,2013-04-07 16:39:00,
2013-04-07 12:44:00,57.6,32.2,29.84,SSE,158,3.8,3.8,38,0.00,,BKN,0.00,WeatherDisplay:10.37,2013-04-07 16:44:00,
2013-04-07 12:49:00,57.4,32.0,29.83,SSW,202,2.9,5.8,38,0.00,,BKN,0.00,WeatherDisplay:10.37,2013-04-07 16:49:00,
2013-04-07 12:54:00,57.2,32.4,29.83,NNE,22,3.4,3.4,39,0.00,,BKN,0.00,WeatherDisplay:10.37,2013-04-07 16:54:00,
2013-04-07 13:00:00,57.0,32.3,29.83,South,180,4.3,5.8,39,0.00,,BKN,0.00,WeatherDisplay:10.37,2013-04-07 17:00:00,
2013-04-07 13:05:00,57.0,32.3,29.83,ESE,112,2.5,4.2,39,0.00,,BKN,0.00,WeatherDisplay:10.37,2013-04-07 17:05:00,
2013-04-07 13:10:00,56.7,31.4,29.83,SSW,202,4.2,5.8,38,0.00,,BKN,0.00,WeatherDisplay:10.37,2013-04-07 17:10:00,
2013-04-07 13:15:00,56.8,31.4,29.82,SSE,158,3.3,4.6,38,0.00,,BKN,0.00,WeatherDisplay:10.37,2013-04-07 17:15:00,
2013-04-07 13:21:00,57.2,32.4,29.82,South,180,2.6,2.7,39,0.00,,BKN,0.00,WeatherDisplay:10.37,2013-04-07 17:21:00,
2013-04-07 13:26:00,57.6,31.5,29.81,SSE,158,2.6,3.5,37,0.00,,BKN,0.00,WeatherDisplay:10.37,2013-04-07 17:26:00,
2013-04-07 13:31:00,57.6,32.8,29.81,SSE,158,3.1,5.3,39,0.00,,BKN,0.00,WeatherDisplay:10.37,2013-04-07 17:31:00,
2013-04-07 13:36:00,57.7,34.1,29.81,SW,225,1.2,3.5,41,0.00,,BKN,0.00,WeatherDisplay:10.37,2013-04-07 17:36:00,
2013-04-07 13:41:00,58.8,33.2,29.81,SW,225,3.6,4.6,38,0.00,,BKN,0.00,WeatherDisplay:10.37,2013-04-07 17:41:00,
2013-04-07 13:46:00,59.4,32.4,29.81,SSW,202,4.5,5.8,36,0.00,,BKN,0.00,WeatherDisplay:10.37,2013-04-07 17:46:00,
2013-04-07 13:51:00,59.5,33.2,29.81,South,180,1.0,2.3,37,0.00,,BKN,0.00,WeatherDisplay:10.37,2013-04-07 17:51:00,
2013-04-07 13:56:00,60.6,33.5,29.81,South,180,2.9,3.5,36,0.00,,BKN,0.00,WeatherDisplay:10.37,2013-04-07 17:56:00,
2013-04-07 14:01:00,62.1,34.8,29.80,SSE,158,2.7,4.6,36,0.00,,BKN,0.00,WeatherDisplay:10.37,2013-04-07 18:01:00,
2013-04-07 14:06:00,62.8,34.0,29.80,SSW,202,2.6,2.7,34,0.00,,BKN,0.00,WeatherDisplay:10.37,2013-04-07 18:06:00,
2013-04-07 14:11:00,63.3,35.2,29.80,WSW,248,4.3,5.8,35,0.00,,BKN,0.00,WeatherDisplay:10.37,2013-04-07 18:11:00,
2013-04-07 14:16:00,63.7,36.2,29.80,SSE,158,3.2,4.6,36,0.00,,BKN,0.00,WeatherDisplay:10.37,2013-04-07 18:16:00,
2013-04-07 14:21:00,63.9,35.7,29.80,SW,225,2.9,3.5,35,0.00,,BKN,0.00,WeatherDisplay:10.37,2013-04-07 18:21:00,
2013-04-07 14:26:00,63.7,36.2,29.79,SSW,202,2.2,3.5,36,0.00,,BKN,0.00,WeatherDisplay:10.37,2013-04-07 18:26:00,
2013-04-07 14:31:00,63.5,36.0,29.79,SSE,158,3.7,4.6,36,0.00,,BKN,0.00,WeatherDisplay:10.37,2013-04-07 18:31:00,
2013-04-07 14:37:00,63.9,37.1,29.80,West,270,3.9,4.7,37,0.00,,BKN,0.00,WeatherDisplay:10.37,2013-04-07 18:37:00,
2013-04-07 14:42:00,63.5,38.1,29.80,SSE,158,2.0,2.3,39,0.00,,BKN,0.00,WeatherDisplay:10.37,2013-04-07 18:42:00,
2013-04-07 14:47:00,63.7,36.2,29.80,SE,135,3.4,5.8,36,0.00,,BKN,0.00,WeatherDisplay:10.37,2013-04-07 18:47:00,
2013-04-07 14:52:00,63.5,36.0,29.79,ESE,112,3.7,4.6,36,0.00,,BKN,0.00,WeatherDisplay:10.37,2013-04-07 18:52:00,
2013-04-07 14:57:00,63.7,36.2,29.79,SSE,158,3.8,4.6,36,0.00,,BKN,0.00,WeatherDisplay:10.37,2013-04-07 18:57:00,
2013-04-07 15:02:00,63.9,37.1,29.78,SSW,202,3.3,5.8,37,0.00,,BKN,0.00,WeatherDisplay:10.37,2013-04-07 19:02:00,
2013-04-07 15:07:00,64.4,36.8,29.78,SSW,202,4.1,4.6,36,0.00,,BKN,0.00,WeatherDisplay:10.37,2013-04-07 19:07:00,
2013-04-07 15:12:00,64.9,36.6,29.78,SSW,202,3.5,5.8,35,0.00,,BKN,0.00,WeatherDisplay:10.37,2013-04-07 19:12:00,
2013-04-07 15:17:00,66.4,37.9,29.78,SSE,158,2.7,3.2,35,0.00,,BKN,0.00,WeatherDisplay:10.37,2013-04-07 19:17:00,
2013-04-07 15:22:00,66.7,38.2,29.77,SSW,202,4.4,5.8,35,0.00,,BKN,0.00,WeatherDisplay:10.37,2013-04-07 19:22:00,
2013-04-07 15:28:00,67.8,38.4,29.77,South,180,4.3,5.8,34,0.00,,BKN,0.00,WeatherDisplay:10.37,2013-04-07 19:28:00,
2013-04-07 15:33:00,68.7,39.2,29.77,South,180,2.5,3.5,34,0.00,,BKN,0.00,WeatherDisplay:10.37,2013-04-07 19:33:00,
2013-04-07 15:38:00,68.9,37.8,29.77,WSW,248,5.1,5.8,32,0.00,,BKN,0.00,WeatherDisplay:10.37,2013-04-07 19:38:00,
2013-04-07 15:43:00,68.9,38.6,29.77,South,180,4.1,5.8,33,0.00,,BKN,0.00,WeatherDisplay:10.37,2013-04-07 19:43:00,
2013-04-07 15:48:00,69.1,38.0,29.77,SSW,202,2.7,3.5,32,0.00,,BKN,0.00,WeatherDisplay:10.37,2013-04-07 19:48:00,
2013-04-07 15:53:00,69.8,39.4,29.77,SSW,202,4.4,5.3,33,0.00,,BKN,0.00,WeatherDisplay:10.37,2013-04-07 19:53:00,
2013-04-07 15:58:00,69.8,39.4,29.77,SE,135,4.3,6.3,33,0.00,,BKN,0.00,WeatherDisplay:10.37,2013-04-07 19:58:00,
2013-04-07 16:03:00,70.2,40.5,29.77,South,180,2.7,6.9,34,0.00,,BKN,0.00,WeatherDisplay:10.37,2013-04-07 20:03:00,
2013-04-07 16:09:00,72.1,38.9,29.77,SSE,158,5.1,6.3,30,0.00,,BKN,0.00,WeatherDisplay:10.37,2013-04-07 20:09:00,
2013-04-07 16:14:00,73.2,39.9,29.77,SE,135,4.5,5.8,30,0.00,,BKN,0.00,WeatherDisplay:10.37,2013-04-07 20:14:00,
2013-04-07 16:19:00,73.9,38.7,29.77,West,270,6.4,13.8,28,0.00,,BKN,0.00,WeatherDisplay:10.37,2013-04-07 20:19:00,
2013-04-07 16:24:00,70.7,40.2,29.76,WSW,248,4.8,8.3,33,0.00,,BKN,0.00,WeatherDisplay:10.37,2013-04-07 20:24:00,
2013-04-07 16:29:00,69.8,38.6,29.76,SSW,202,3.0,3.5,32,0.00,,BKN,0.00,WeatherDisplay:10.37,2013-04-07 20:29:00,
2013-04-07 16:35:00,68.4,38.9,29.76,South,180,3.6,4.6,34,0.00,,BKN,0.00,WeatherDisplay:10.37,2013-04-07 20:35:00,
2013-04-07 16:40:00,68.9,40.1,29.76,SSE,158,4.5,5.8,35,0.00,,BKN,0.00,WeatherDisplay:10.37,2013-04-07 20:40:00,
2013-04-07 16:45:00,68.0,39.3,29.76,SW,225,3.1,4.6,35,0.00,,BKN,0.00,WeatherDisplay:10.37,2013-04-07 20:45:00,
2013-04-07 16:50:00,69.4,39.8,29.76,SSW,202,2.1,3.5,34,0.00,,BKN,0.00,WeatherDisplay:10.37,2013-04-07 20:50:00,
2013-04-07 16:55:00,68.5,39.8,29.76,WNW,292,2.7,3.5,35,0.00,,BKN,0.00,WeatherDisplay:10.37,2013-04-07 20:55:00,
2013-04-07 17:00:00,68.5,39.0,29.76,SW,225,6.2,13.0,34,0.00,,BKN,0.00,WeatherDisplay:10.37,2013-04-07 21:00:00,
2013-04-07 17:05:00,68.9,39.4,29.76,WSW,248,2.9,3.5,34,0.00,,BKN,0.00,WeatherDisplay:10.37,2013-04-07 21:05:00,
2013-04-07 17:10:00,67.6,39.7,29.76,SSW,202,3.1,4.6,36,0.00,,BKN,0.00,WeatherDisplay:10.37,2013-04-07 21:10:00,
2013-04-07 17:15:00,68.2,39.5,29.76,SSE,158,2.3,4.6,35,0.00,,BKN,0.00,WeatherDisplay:10.37,2013-04-07 21:15:00,
2013-04-07 17:20:00,67.6,39.7,29.76,West,270,3.4,4.6,36,0.00,,BKN,0.00,WeatherDisplay:10.37,2013-04-07 21:20:00,
2013-04-07 17:25:00,67.3,39.4,29.76,ESE,112,2.3,4.2,36,0.00,,BKN,0.00,WeatherDisplay:10.37,2013-04-07 21:25:00,
2013-04-07 17:30:00,66.2,38.4,29.76,WSW,248,3.2,3.5,36,0.00,,BKN,0.00,WeatherDisplay:10.37,2013-04-07 21:30:00,
2013-04-07 17:35:00,65.8,39.5,29.77,SE,135,5.0,8.8,38,0.00,,BKN,0.00,WeatherDisplay:10.37,2013-04-07 21:35:00,
2013-04-07 17:40:00,66.4,40.0,29.77,South,180,5.1,5.8,38,0.00,,BKN,0.00,WeatherDisplay:10.37,2013-04-07 21:40:00,
2013-04-07 17:46:00,66.4,40.0,29.77,East,90,2.8,2.8,38,0.00,,BKN,0.00,WeatherDisplay:10.37,2013-04-07 21:46:00,
2013-04-07 17:51:00,66.4,39.3,29.77,SSW,202,3.3,3.5,37,0.00,,BKN,0.00,WeatherDisplay:10.37,2013-04-07 21:51:00,
2013-04-07 17:56:00,66.0,39.7,29.77,West,270,3.2,3.5,38,0.00,,BKN,0.00,WeatherDisplay:10.37,2013-04-07 21:56:00,
2013-04-07 18:02:00,65.5,38.5,29.78,SSE,158,4.3,4.6,37,0.00,,BKN,0.00,WeatherDisplay:10.37,2013-04-07 22:02:00,
2013-04-07 18:07:00,65.5,39.2,29.78,SE,135,3.3,4.6,38,0.00,,BKN,0.00,WeatherDisplay:10.37,2013-04-07 22:07:00,
2013-04-07 18:12:00,65.5,39.2,29.78,West,270,3.9,4.6,38,0.00,,BKN,0.00,WeatherDisplay:10.37,2013-04-07 22:12:00,
2013-04-07 18:17:00,65.5,39.2,29.78,NW,315,5.9,6.9,38,0.00,,BKN,0.00,WeatherDisplay:10.37,2013-04-07 22:17:00,
2013-04-07 18:22:00,65.5,39.9,29.78,West,270,3.4,4.2,39,0.00,,BKN,0.00,WeatherDisplay:10.37,2013-04-07 22:22:00,
2013-04-07 18:27:00,66.0,39.0,29.81,NW,315,4.3,4.6,37,0.00,,BKN,0.00,WeatherDisplay:10.37,2013-04-07 22:27:00,
2013-04-07 18:32:00,64.8,42.4,29.81,WNW,292,9.1,13.8,44,0.00,,BKN,0.00,WeatherDisplay:10.37,2013-04-07 22:32:00,
2013-04-07 18:37:00,61.3,44.0,29.83,WNW,292,7.2,9.2,53,0.00,,BKN,0.00,WeatherDisplay:10.37,2013-04-07 22:37:00,
2013-04-07 18:43:00,59.4,43.7,29.83,WNW,292,8.9,12.7,56,0.00,,BKN,0.00,WeatherDisplay:10.37,2013-04-07 22:43:00,
2013-04-07 18:48:00,58.3,43.1,29.85,NW,315,8.4,10.9,57,0.00,,BKN,0.00,WeatherDisplay:10.37,2013-04-07 22:48:00,
2013-04-07 18:53:00,57.9,43.2,29.85,NW,315,8.3,10.4,58,0.00,,BKN,0.00,WeatherDisplay:10.37,2013-04-07 22:53:00,
2013-04-07 18:58:00,57.6,42.9,29.85,NW,315,7.9,10.4,58,0.00,,BKN,0.00,WeatherDisplay:10.37,2013-04-07 22:58:00,
2013-04-07 19:03:00,57.2,42.5,29.87,WNW,292,5.9,6.9,58,0.00,,BKN,0.00,WeatherDisplay:10.37,2013-04-07 23:03:00,
2013-04-07 19:08:00,57.0,42.4,29.87,NNE,22,7.0,9.2,58,0.00,,BKN,0.00,WeatherDisplay:10.37,2013-04-07 23:08:00,
2013-04-07 19:13:00,56.5,41.4,29.88,NW,315,7.9,9.2,57,0.00,,BKN,0.00,WeatherDisplay:10.37,2013-04-07 23:13:00,
2013-04-07 19:18:00,56.1,41.1,29.88,NW,315,5.9,6.9,57,0.00,,BKN,0.00,WeatherDisplay:10.37,2013-04-07 23:18:00,
2013-04-07 19:23:00,55.9,41.3,29.88,NW,315,4.0,5.8,58,0.00,,BKN,0.00,WeatherDisplay:10.37,2013-04-07 23:23:00,
2013-04-07 19:28:00,55.6,41.0,29.88,NW,315,5.2,8.1,58,0.00,,BKN,0.00,WeatherDisplay:10.37,2013-04-07 23:28:00,
2013-04-07 19:34:00,55.0,40.9,29.88,WNW,292,6.5,8.1,59,0.00,,BKN,0.00,WeatherDisplay:10.37,2013-04-07 23:34:00,
2013-04-07 19:39:00,54.5,40.5,29.90,WNW,292,7.1,9.2,59,0.00,,BKN,0.00,WeatherDisplay:10.37,2013-04-07 23:39:00,
2013-04-07 19:44:00,54.0,40.4,29.90,NW,315,6.5,9.2,60,0.00,,BKN,0.00,WeatherDisplay:10.37,2013-04-07 23:44:00,
2013-04-07 19:49:00,53.6,40.0,29.91,NW,315,5.4,6.3,60,0.00,,BKN,0.00,WeatherDisplay:10.37,2013-04-07 23:49:00,
2013-04-07 19:54:00,53.2,40.1,29.91,NW,315,4.0,6.9,61,0.00,,BKN,0.00,WeatherDisplay:10.37,2013-04-07 23:54:00,
2013-04-07 19:59:00,52.7,40.0,29.92,West,270,5.3,8.1,62,0.00,,BKN,0.00,WeatherDisplay:10.37,2013-04-07 23:59:00,
2013-04-07 20:05:00,52.5,39.8,29.92,WNW,292,4.8,6.9,62,0.00,,BKN,0.00,WeatherDisplay:10.37,2013-04-08 00:05:00,
2013-04-07 20:10:00,52.3,39.7,29.92,NW,315,3.7,4.6,62,0.00,,BKN,0.00,WeatherDisplay:10.37,2013-04-08 00:10:00,
2013-04-07 20:15:00,52.0,39.8,29.93,NW,315,3.8,5.8,63,0.00,,BKN,0.00,WeatherDisplay:10.37,2013-04-08 00:15:00,
2013-04-07 20:20:00,51.6,39.4,29.93,WNW,292,4.6,5.8,63,0.00,,BKN,0.00,WeatherDisplay:10.37,2013-04-08 00:20:00,
2013-04-07 20:25:00,51.1,38.9,29.94,WNW,292,4.6,5.8,63,0.00,,BKN,0.00,WeatherDisplay:10.37,2013-04-08 00:25:00,
2013-04-07 20:30:00,50.9,38.7,29.94,WNW,292,5.1,8.1,63,0.00,,BKN,0.00,WeatherDisplay:10.37,2013-04-08 00:30:00,
2013-04-07 20:35:00,50.5,38.4,29.94,NNW,338,4.8,5.8,63,0.00,,BKN,0.00,WeatherDisplay:10.37,2013-04-08 00:35:00,
2013-04-07 20:40:00,50.4,38.3,29.95,WNW,292,5.0,5.8,63,0.00,,BKN,0.00,WeatherDisplay:10.37,2013-04-08 00:40:00,
2013-04-07 20:45:00,50.2,38.1,29.95,West,270,4.2,4.6,63,0.00,,BKN,0.00,WeatherDisplay:10.37,2013-04-08 00:45:00,
2013-04-07 20:50:00,50.2,38.1,29.96,West,270,4.2,4.6,63,0.00,,BKN,0.00,WeatherDisplay:10.37,2013-04-08 00:50:00,
2013-04-07 20:55:00,49.8,38.1,29.96,West,270,4.1,5.8,64,0.00,,BKN,0.00,WeatherDisplay:10.37,2013-04-08 00:55:00,
2013-04-07 21:00:00,49.6,37.9,29.97,WNW,292,4.6,5.3,64,0.00,,BKN,0.00,WeatherDisplay:10.37,2013-04-08 01:00:00,
2013-04-07 21:05:00,49.6,37.9,29.97,WNW,292,5.3,6.9,64,0.00,,BKN,0.00,WeatherDisplay:10.37,2013-04-08 01:05:00,
2013-04-07 21:10:00,49.3,37.6,29.98,West,270,3.3,4.2,64,0.00,,BKN,0.00,WeatherDisplay:10.37,2013-04-08 01:10:00,
2013-04-07 21:15:00,49.1,37.4,29.98,NNW,338,4.0,5.3,64,0.00,,BKN,0.00,WeatherDisplay:10.37,2013-04-08 01:15:00,
2013-04-07 21:21:00,48.9,37.3,29.98,West,270,4.7,4.7,64,0.00,,BKN,0.00,WeatherDisplay:10.37,2013-04-08 01:21:00,
2013-04-07 21:27:00,48.9,37.3,29.98,West,270,5.2,6.8,64,0.00,,BKN,0.00,WeatherDisplay:10.37,2013-04-08 01:27:00,
2013-04-07 21:32:00,48.9,37.3,29.98,West,270,5.0,5.8,64,0.00,,BKN,0.00,WeatherDisplay:10.37,2013-04-08 01:32:00,
2013-04-07 21:37:00,48.9,37.3,29.99,WNW,292,6.1,6.3,64,0.00,,BKN,0.00,WeatherDisplay:10.37,2013-04-08 01:37:00,
2013-04-07 21:42:00,48.7,37.1,29.99,NW,315,3.8,4.6,64,0.00,,BKN,0.00,WeatherDisplay:10.37,2013-04-08 01:42:00,
2013-04-07 21:47:00,48.6,37.4,30.00,West,270,3.6,5.8,65,0.00,,BKN,0.00,WeatherDisplay:10.37,2013-04-08 01:47:00,
2013-04-07 21:53:00,48.4,37.2,30.00,WNW,292,5.7,5.8,65,0.00,,BKN,0.00,WeatherDisplay:10.37,2013-04-08 01:53:00,
2013-04-07 21:58:00,48.0,36.8,30.00,West,270,3.8,4.6,65,0.00,,BKN,0.00,WeatherDisplay:10.37,2013-04-08 01:58:00,
2013-04-07 22:03:00,47.7,36.9,30.01,WNW,292,4.2,4.7,66,0.00,,BKN,0.00,WeatherDisplay:10.37,2013-04-08 02:03:00,
2013-04-07 22:08:00,47.3,36.5,30.01,WNW,292,4.3,5.8,66,0.00,,BKN,0.00,WeatherDisplay:10.37,2013-04-08 02:08:00,
2013-04-07 22:13:00,47.1,36.3,30.01,WNW,292,6.0,8.1,66,0.00,,BKN,0.00,WeatherDisplay:10.37,2013-04-08 02:13:00,
2013-04-07 22:18:00,46.9,36.1,30.01,WNW,292,3.3,3.7,66,0.00,,BKN,0.00,WeatherDisplay:10.37,2013-04-08 02:18:00,
2013-04-07 22:23:00,46.6,36.2,30.01,NW,315,4.3,4.6,67,0.00,,BKN,0.00,WeatherDisplay:10.37,2013-04-08 02:23:00,
2013-04-07 22:28:00,46.4,36.0,30.02,WNW,292,2.5,3.5,67,0.00,,BKN,0.00,WeatherDisplay:10.37,2013-04-08 02:28:00,
2013-04-07 22:33:00,46.0,36.0,30.02,WNW,292,5.4,5.8,68,0.00,,BKN,0.00,WeatherDisplay:10.37,2013-04-08 02:33:00,
2013-04-07 22:39:00,45.9,35.9,30.02,West,270,5.5,8.3,68,0.00,,BKN,0.00,WeatherDisplay:10.37,2013-04-08 02:39:00,
2013-04-07 22:44:00,45.7,35.7,30.02,West,270,4.0,5.8,68,0.00,,BKN,0.00,WeatherDisplay:10.37,2013-04-08 02:44:00,
2013-04-07 22:49:00,45.5,35.9,30.02,NW,315,3.2,4.6,69,0.00,,BKN,0.00,WeatherDisplay:10.37,2013-04-08 02:49:00,
2013-04-07 22:54:00,45.3,35.7,30.02,WNW,292,2.7,4.6,69,0.00,,BKN,0.00,WeatherDisplay:10.37,2013-04-08 02:54:00,
2013-04-07 23:00:00,45.0,35.8,30.03,WNW,292,3.5,3.5,70,0.00,,BKN,0.00,WeatherDisplay:10.37,2013-04-08 03:00:00,
2013-04-07 23:05:00,44.6,35.4,30.03,WNW,292,2.8,3.7,70,0.00,,BKN,0.00,WeatherDisplay:10.37,2013-04-08 03:05:00,
2013-04-07 23:11:00,44.6,35.8,30.03,WNW,292,4.0,4.6,71,0.00,,BKN,0.00,WeatherDisplay:10.37,2013-04-08 03:11:00,
2013-04-07 23:16:00,44.4,35.6,30.03,WNW,292,2.8,4.6,71,0.00,,BKN,0.00,WeatherDisplay:10.37,2013-04-08 03:16:00,
2013-04-07 23:22:00,44.2,35.7,30.03,WNW,292,2.7,2.7,72,0.00,,BKN,0.00,WeatherDisplay:10.37,2013-04-08 03:22:00,
2013-04-07 23:27:00,44.2,35.7,30.03,WNW,292,2.1,3.5,72,0.00,,BKN,0.00,WeatherDisplay:10.37,2013-04-08 03:27:00,
2013-04-07 23:32:00,44.4,35.6,30.03,WNW,292,2.7,3.5,71,0.00,,BKN,0.00,WeatherDisplay:10.37,2013-04-08 03:32:00,
2013-04-07 23:37:00,44.4,35.9,30.03,WNW,292,2.7,2.7,72,0.00,,BKN,0.00,WeatherDisplay:10.37,2013-04-08 03:37:00,
2013-04-07 23:42:00,44.4,35.9,30.03,WNW,292,2.3,3.5,72,0.00,,BKN,0.00,WeatherDisplay:10.37,2013-04-08 03:42:00,
2013-04-07 23:47:00,44.4,35.9,30.03,WNW,292,3.2,4.7,72,0.00,,BKN,0.00,WeatherDisplay:10.37,2013-04-08 03:47:00,
2013-04-07 23:52:00,44.6,35.8,30.04,West,270,2.9,3.5,71,0.00,,BKN,0.00,WeatherDisplay:10.37,2013-04-08 03:52:00,
2013-04-07 23:58:00,44.6,35.8,30.04,West,270,2.7,3.5,71,0.00,,BKN,0.00,WeatherDisplay:10.37,2013-04-08 03:58:00,